sensor_id;sensor_type;location;lat;lon;timestamp;temperature;humidity
42019;DHT22;27703;51.980;5.848;2023-10-13T00:01:07;17.50;99.90
42019;DHT22;27703;51.980;5.848;2023-10-13T00:03:33;17.40;99.90
42019;DHT22;27703;51.980;5.848;2023-10-13T00:05:59;17.40;99.90
42019;DHT22;27703;51.980;5.848;2023-10-13T00:08:29;17.40;99.90
42019;DHT22;27703;51.980;5.848;2023-10-13T00:10:56;17.40;99.90
42019;DHT22;27703;51.980;5.848;2023-10-13T00:13:30;17.40;99.90
42019;DHT22;27703;51.980;5.848;2023-10-13T00:16:06;17.40;99.90
42019;DHT22;27703;51.980;5.848;2023-10-13T00:18:34;17.40;99.90
42019;DHT22;27703;51.980;5.848;2023-10-13T00:21:06;17.40;99.90
42019;DHT22;27703;51.980;5.848;2023-10-13T00:23:44;17.40;99.90
42019;DHT22;27703;51.980;5.848;2023-10-13T00:26:24;17.50;99.90
42019;DHT22;27703;51.980;5.848;2023-10-13T00:28:53;17.50;99.90
42019;DHT22;27703;51.980;5.848;2023-10-13T00:31:45;17.40;99.90
42019;DHT22;27703;51.980;5.848;2023-10-13T00:34:13;17.40;99.90
42019;DHT22;27703;51.980;5.848;2023-10-13T00:36:58;17.40;99.90
42019;DHT22;27703;51.980;5.848;2023-10-13T00:39:42;17.40;99.90
42019;DHT22;27703;51.980;5.848;2023-10-13T00:42:13;17.40;99.90
42019;DHT22;27703;51.980;5.848;2023-10-13T00:44:56;17.40;99.90
42019;DHT22;27703;51.980;5.848;2023-10-13T00:47:21;17.40;99.90
42019;DHT22;27703;51.980;5.848;2023-10-13T00:50:04;17.40;99.90
42019;DHT22;27703;51.980;5.848;2023-10-13T00:52:30;17.40;99.90
42019;DHT22;27703;51.980;5.848;2023-10-13T00:54:58;17.40;99.90
42019;DHT22;27703;51.980;5.848;2023-10-13T00:57:25;17.40;99.90
42019;DHT22;27703;51.980;5.848;2023-10-13T00:59:58;17.40;99.90
42019;DHT22;27703;51.980;5.848;2023-10-13T01:02:24;17.40;99.90
42019;DHT22;27703;51.980;5.848;2023-10-13T01:05:06;17.40;99.90
42019;DHT22;27703;51.980;5.848;2023-10-13T01:07:46;17.40;99.90
42019;DHT22;27703;51.980;5.848;2023-10-13T01:10:16;17.40;99.90
42019;DHT22;27703;51.980;5.848;2023-10-13T01:12:42;17.40;99.90
42019;DHT22;27703;51.980;5.848;2023-10-13T01:15:09;17.40;99.90
42019;DHT22;27703;51.980;5.848;2023-10-13T01:17:36;17.40;99.90
42019;DHT22;27703;51.980;5.848;2023-10-13T01:20:03;17.40;99.90
42019;DHT22;27703;51.980;5.848;2023-10-13T01:22:30;17.40;99.90
42019;DHT22;27703;51.980;5.848;2023-10-13T01:24:57;17.40;99.90
42019;DHT22;27703;51.980;5.848;2023-10-13T01:27:30;17.40;99.90
42019;DHT22;27703;51.980;5.848;2023-10-13T01:29:55;17.40;99.90
42019;DHT22;27703;51.980;5.848;2023-10-13T01:32:24;17.40;99.90
42019;DHT22;27703;51.980;5.848;2023-10-13T01:34:50;17.40;99.90
42019;DHT22;27703;51.980;5.848;2023-10-13T01:37:20;17.40;99.90
42019;DHT22;27703;51.980;5.848;2023-10-13T01:39:47;17.40;99.90
42019;DHT22;27703;51.980;5.848;2023-10-13T01:42:17;17.40;99.90
42019;DHT22;27703;51.980;5.848;2023-10-13T01:44:47;17.40;99.90
42019;DHT22;27703;51.980;5.848;2023-10-13T01:47:14;17.40;99.90
42019;DHT22;27703;51.980;5.848;2023-10-13T01:49:41;17.40;99.90
42019;DHT22;27703;51.980;5.848;2023-10-13T01:52:08;17.40;99.90
42019;DHT22;27703;51.980;5.848;2023-10-13T01:54:37;17.40;99.90
42019;DHT22;27703;51.980;5.848;2023-10-13T01:57:07;17.40;99.90
42019;DHT22;27703;51.980;5.848;2023-10-13T01:59:32;17.40;99.90
42019;DHT22;27703;51.980;5.848;2023-10-13T02:01:58;17.40;99.90
42019;DHT22;27703;51.980;5.848;2023-10-13T02:04:27;17.40;99.90
42019;DHT22;27703;51.980;5.848;2023-10-13T02:06:53;17.30;99.90
42019;DHT22;27703;51.980;5.848;2023-10-13T02:09:18;17.40;99.90
42019;DHT22;27703;51.980;5.848;2023-10-13T02:11:54;17.30;99.90
42019;DHT22;27703;51.980;5.848;2023-10-13T02:14:21;17.30;99.90
42019;DHT22;27703;51.980;5.848;2023-10-13T02:16:51;17.40;99.90
42019;DHT22;27703;51.980;5.848;2023-10-13T02:19:21;17.40;99.90
42019;DHT22;27703;51.980;5.848;2023-10-13T02:21:47;17.40;99.90
42019;DHT22;27703;51.980;5.848;2023-10-13T02:24:24;17.40;99.90
42019;DHT22;27703;51.980;5.848;2023-10-13T02:26:56;17.40;99.90
42019;DHT22;27703;51.980;5.848;2023-10-13T02:29:28;17.40;99.90
42019;DHT22;27703;51.980;5.848;2023-10-13T02:31:53;17.40;99.90
42019;DHT22;27703;51.980;5.848;2023-10-13T02:34:22;17.30;99.90
42019;DHT22;27703;51.980;5.848;2023-10-13T02:36:48;17.30;99.90
42019;DHT22;27703;51.980;5.848;2023-10-13T02:39:15;17.30;99.90
42019;DHT22;27703;51.980;5.848;2023-10-13T02:41:50;17.30;99.90
42019;DHT22;27703;51.980;5.848;2023-10-13T02:44:15;17.30;99.90
42019;DHT22;27703;51.980;5.848;2023-10-13T02:46:56;17.30;99.90
42019;DHT22;27703;51.980;5.848;2023-10-13T02:49:26;17.30;99.90
42019;DHT22;27703;51.980;5.848;2023-10-13T02:51:55;17.30;99.90
42019;DHT22;27703;51.980;5.848;2023-10-13T02:54:21;17.30;99.90
42019;DHT22;27703;51.980;5.848;2023-10-13T02:56:47;17.30;99.90
42019;DHT22;27703;51.980;5.848;2023-10-13T02:59:30;17.30;99.90
42019;DHT22;27703;51.980;5.848;2023-10-13T03:02:08;17.30;99.90
42019;DHT22;27703;51.980;5.848;2023-10-13T03:04:57;17.20;99.90
42019;DHT22;27703;51.980;5.848;2023-10-13T03:07:26;17.20;99.90
42019;DHT22;27703;51.980;5.848;2023-10-13T03:09:57;17.20;99.90
42019;DHT22;27703;51.980;5.848;2023-10-13T03:12:26;17.20;99.90
42019;DHT22;27703;51.980;5.848;2023-10-13T03:14:53;17.20;99.90
42019;DHT22;27703;51.980;5.848;2023-10-13T03:17:28;17.20;99.90
42019;DHT22;27703;51.980;5.848;2023-10-13T03:20:00;17.20;99.90
42019;DHT22;27703;51.980;5.848;2023-10-13T03:22:26;17.20;99.90
42019;DHT22;27703;51.980;5.848;2023-10-13T03:24:59;17.20;99.90
42019;DHT22;27703;51.980;5.848;2023-10-13T03:27:30;17.20;99.90
42019;DHT22;27703;51.980;5.848;2023-10-13T03:30:07;17.20;99.90
42019;DHT22;27703;51.980;5.848;2023-10-13T03:32:39;17.20;99.90
42019;DHT22;27703;51.980;5.848;2023-10-13T03:35:09;17.20;99.90
42019;DHT22;27703;51.980;5.848;2023-10-13T03:37:57;17.20;99.90
42019;DHT22;27703;51.980;5.848;2023-10-13T03:40:23;17.20;99.90
42019;DHT22;27703;51.980;5.848;2023-10-13T03:42:57;17.20;99.90
42019;DHT22;27703;51.980;5.848;2023-10-13T03:45:40;17.20;99.90
42019;DHT22;27703;51.980;5.848;2023-10-13T03:48:12;17.20;99.90
42019;DHT22;27703;51.980;5.848;2023-10-13T03:50:54;17.20;99.90
42019;DHT22;27703;51.980;5.848;2023-10-13T03:53:29;17.10;99.90
42019;DHT22;27703;51.980;5.848;2023-10-13T03:56:02;17.10;99.90
42019;DHT22;27703;51.980;5.848;2023-10-13T03:58:35;17.20;99.90
42019;DHT22;27703;51.980;5.848;2023-10-13T04:01:00;17.10;99.90
42019;DHT22;27703;51.980;5.848;2023-10-13T04:03:26;17.20;99.90
42019;DHT22;27703;51.980;5.848;2023-10-13T04:06:07;17.20;99.90
42019;DHT22;27703;51.980;5.848;2023-10-13T04:08:33;17.20;99.90
42019;DHT22;27703;51.980;5.848;2023-10-13T04:11:08;17.20;99.90
42019;DHT22;27703;51.980;5.848;2023-10-13T04:13:52;17.20;99.90
42019;DHT22;27703;51.980;5.848;2023-10-13T04:16:36;17.20;99.90
42019;DHT22;27703;51.980;5.848;2023-10-13T04:19:03;17.20;99.90
42019;DHT22;27703;51.980;5.848;2023-10-13T04:21:33;17.20;99.90
42019;DHT22;27703;51.980;5.848;2023-10-13T04:27:02;17.20;99.90
42019;DHT22;27703;51.980;5.848;2023-10-13T04:29:37;17.20;99.90
42019;DHT22;27703;51.980;5.848;2023-10-13T04:32:21;17.20;99.90
42019;DHT22;27703;51.980;5.848;2023-10-13T04:35:04;17.10;99.90
42019;DHT22;27703;51.980;5.848;2023-10-13T04:37:39;17.20;99.90
42019;DHT22;27703;51.980;5.848;2023-10-13T04:40:33;17.20;99.90
42019;DHT22;27703;51.980;5.848;2023-10-13T04:43:02;17.20;99.90
42019;DHT22;27703;51.980;5.848;2023-10-13T04:45:50;17.20;99.90
42019;DHT22;27703;51.980;5.848;2023-10-13T04:48:19;17.20;99.90
42019;DHT22;27703;51.980;5.848;2023-10-13T04:50:48;17.30;99.90
42019;DHT22;27703;51.980;5.848;2023-10-13T04:53:23;17.20;99.90
42019;DHT22;27703;51.980;5.848;2023-10-13T04:56:21;17.20;99.90
42019;DHT22;27703;51.980;5.848;2023-10-13T04:59:05;17.20;99.90
42019;DHT22;27703;51.980;5.848;2023-10-13T05:01:43;17.30;99.90
42019;DHT22;27703;51.980;5.848;2023-10-13T05:04:28;17.30;99.90
42019;DHT22;27703;51.980;5.848;2023-10-13T05:07:25;17.30;99.90
42019;DHT22;27703;51.980;5.848;2023-10-13T05:10:09;17.40;99.90
42019;DHT22;27703;51.980;5.848;2023-10-13T05:12:53;17.40;99.90
42019;DHT22;27703;51.980;5.848;2023-10-13T05:15:47;17.50;99.90
42019;DHT22;27703;51.980;5.848;2023-10-13T05:18:32;17.50;99.90
42019;DHT22;27703;51.980;5.848;2023-10-13T05:21:17;17.60;99.90
42019;DHT22;27703;51.980;5.848;2023-10-13T05:24:02;17.60;99.90
42019;DHT22;27703;51.980;5.848;2023-10-13T05:26:46;17.70;99.90
42019;DHT22;27703;51.980;5.848;2023-10-13T05:29:30;17.70;99.90
42019;DHT22;27703;51.980;5.848;2023-10-13T05:32:14;17.70;99.90
42019;DHT22;27703;51.980;5.848;2023-10-13T05:34:58;17.80;99.90
42019;DHT22;27703;51.980;5.848;2023-10-13T05:37:42;17.80;99.90
42019;DHT22;27703;51.980;5.848;2023-10-13T05:40:26;17.90;99.90
42019;DHT22;27703;51.980;5.848;2023-10-13T05:43:10;17.90;99.90
42019;DHT22;27703;51.980;5.848;2023-10-13T05:46:00;17.90;99.90
42019;DHT22;27703;51.980;5.848;2023-10-13T05:48:45;17.90;99.90
42019;DHT22;27703;51.980;5.848;2023-10-13T05:51:26;18.00;99.90
42019;DHT22;27703;51.980;5.848;2023-10-13T05:54:02;18.00;99.90
42019;DHT22;27703;51.980;5.848;2023-10-13T05:56:51;18.00;99.90
42019;DHT22;27703;51.980;5.848;2023-10-13T05:59:36;18.00;99.90
42019;DHT22;27703;51.980;5.848;2023-10-13T06:02:22;18.00;99.90
42019;DHT22;27703;51.980;5.848;2023-10-13T06:05:08;18.00;99.90
42019;DHT22;27703;51.980;5.848;2023-10-13T06:07:53;18.00;99.90
42019;DHT22;27703;51.980;5.848;2023-10-13T06:10:37;18.00;99.90
42019;DHT22;27703;51.980;5.848;2023-10-13T06:13:22;18.00;99.90
42019;DHT22;27703;51.980;5.848;2023-10-13T06:16:13;18.00;99.90
42019;DHT22;27703;51.980;5.848;2023-10-13T06:18:57;18.00;99.90
42019;DHT22;27703;51.980;5.848;2023-10-13T06:21:42;18.00;99.90
42019;DHT22;27703;51.980;5.848;2023-10-13T06:24:26;18.00;99.90
42019;DHT22;27703;51.980;5.848;2023-10-13T06:27:10;18.00;99.90
42019;DHT22;27703;51.980;5.848;2023-10-13T06:29:54;18.00;99.90
42019;DHT22;27703;51.980;5.848;2023-10-13T06:32:21;18.00;99.90
42019;DHT22;27703;51.980;5.848;2023-10-13T06:34:52;18.10;99.90
42019;DHT22;27703;51.980;5.848;2023-10-13T06:37:26;18.10;99.90
42019;DHT22;27703;51.980;5.848;2023-10-13T06:39:57;18.10;99.90
42019;DHT22;27703;51.980;5.848;2023-10-13T06:42:26;18.10;99.90
42019;DHT22;27703;51.980;5.848;2023-10-13T06:44:53;18.20;99.90
42019;DHT22;27703;51.980;5.848;2023-10-13T06:47:19;18.10;99.90
42019;DHT22;27703;51.980;5.848;2023-10-13T06:49:46;18.10;99.90
42019;DHT22;27703;51.980;5.848;2023-10-13T06:52:13;18.20;99.90
42019;DHT22;27703;51.980;5.848;2023-10-13T06:54:39;18.10;99.90
42019;DHT22;27703;51.980;5.848;2023-10-13T06:57:06;18.20;99.90
42019;DHT22;27703;51.980;5.848;2023-10-13T06:59:36;18.20;99.90
42019;DHT22;27703;51.980;5.848;2023-10-13T07:02:05;18.20;99.90
42019;DHT22;27703;51.980;5.848;2023-10-13T07:04:32;18.20;99.90
42019;DHT22;27703;51.980;5.848;2023-10-13T07:06:58;18.10;99.90
42019;DHT22;27703;51.980;5.848;2023-10-13T07:09:26;18.20;99.90
42019;DHT22;27703;51.980;5.848;2023-10-13T07:12:02;18.20;99.90
42019;DHT22;27703;51.980;5.848;2023-10-13T07:14:29;18.20;99.90
42019;DHT22;27703;51.980;5.848;2023-10-13T07:17:05;18.20;99.90
42019;DHT22;27703;51.980;5.848;2023-10-13T07:19:32;18.30;99.90
42019;DHT22;27703;51.980;5.848;2023-10-13T07:22:03;18.20;99.90
42019;DHT22;27703;51.980;5.848;2023-10-13T07:24:45;18.20;99.90
42019;DHT22;27703;51.980;5.848;2023-10-13T07:27:15;18.20;99.90
42019;DHT22;27703;51.980;5.848;2023-10-13T07:29:48;18.20;99.90
42019;DHT22;27703;51.980;5.848;2023-10-13T07:32:21;18.20;99.90
42019;DHT22;27703;51.980;5.848;2023-10-13T07:34:49;18.20;99.90
42019;DHT22;27703;51.980;5.848;2023-10-13T07:37:16;18.20;99.90
42019;DHT22;27703;51.980;5.848;2023-10-13T07:39:41;18.20;99.90
42019;DHT22;27703;51.980;5.848;2023-10-13T07:42:08;18.20;99.90
42019;DHT22;27703;51.980;5.848;2023-10-13T07:44:44;18.20;99.90
42019;DHT22;27703;51.980;5.848;2023-10-13T07:47:13;18.20;99.90
42019;DHT22;27703;51.980;5.848;2023-10-13T07:49:40;18.20;99.90
42019;DHT22;27703;51.980;5.848;2023-10-13T07:52:11;18.20;99.90
42019;DHT22;27703;51.980;5.848;2023-10-13T07:54:46;18.30;99.90
42019;DHT22;27703;51.980;5.848;2023-10-13T07:57:20;18.30;99.90
42019;DHT22;27703;51.980;5.848;2023-10-13T07:59:57;18.30;99.90
42019;DHT22;27703;51.980;5.848;2023-10-13T08:02:35;18.30;99.90
42019;DHT22;27703;51.980;5.848;2023-10-13T08:05:14;18.30;99.90
42019;DHT22;27703;51.980;5.848;2023-10-13T08:07:50;18.30;99.90
42019;DHT22;27703;51.980;5.848;2023-10-13T08:10:15;18.40;99.90
42019;DHT22;27703;51.980;5.848;2023-10-13T08:12:42;18.40;99.90
42019;DHT22;27703;51.980;5.848;2023-10-13T08:15:09;18.40;99.90
42019;DHT22;27703;51.980;5.848;2023-10-13T08:17:46;18.40;99.90
42019;DHT22;27703;51.980;5.848;2023-10-13T08:20:12;18.50;99.90
42019;DHT22;27703;51.980;5.848;2023-10-13T08:22:38;18.60;99.90
42019;DHT22;27703;51.980;5.848;2023-10-13T08:25:04;18.60;99.90
42019;DHT22;27703;51.980;5.848;2023-10-13T08:27:48;18.60;99.90
42019;DHT22;27703;51.980;5.848;2023-10-13T08:30:33;18.70;99.90
42019;DHT22;27703;51.980;5.848;2023-10-13T08:33:07;18.70;99.90
42019;DHT22;27703;51.980;5.848;2023-10-13T08:35:43;18.70;99.90
42019;DHT22;27703;51.980;5.848;2023-10-13T08:38:31;18.80;99.90
42019;DHT22;27703;51.980;5.848;2023-10-13T08:41:08;18.80;99.90
42019;DHT22;27703;51.980;5.848;2023-10-13T08:43:42;18.80;99.90
42019;DHT22;27703;51.980;5.848;2023-10-13T08:46:10;18.90;99.90
42019;DHT22;27703;51.980;5.848;2023-10-13T08:48:54;18.90;99.90
42019;DHT22;27703;51.980;5.848;2023-10-13T08:51:31;18.90;99.90
42019;DHT22;27703;51.980;5.848;2023-10-13T08:54:13;19.00;99.90
42019;DHT22;27703;51.980;5.848;2023-10-13T08:56:47;19.10;99.90
42019;DHT22;27703;51.980;5.848;2023-10-13T08:59:20;19.10;99.90
42019;DHT22;27703;51.980;5.848;2023-10-13T09:01:58;19.10;99.90
42019;DHT22;27703;51.980;5.848;2023-10-13T09:04:42;19.20;99.90
42019;DHT22;27703;51.980;5.848;2023-10-13T09:07:09;19.20;99.90
42019;DHT22;27703;51.980;5.848;2023-10-13T09:12:13;19.30;99.90
42019;DHT22;27703;51.980;5.848;2023-10-13T09:14:40;19.40;99.90
42019;DHT22;27703;51.980;5.848;2023-10-13T09:17:22;19.50;99.90
42019;DHT22;27703;51.980;5.848;2023-10-13T09:20:05;19.50;99.90
42019;DHT22;27703;51.980;5.848;2023-10-13T09:22:54;19.60;99.90
42019;DHT22;27703;51.980;5.848;2023-10-13T09:25:37;19.70;99.90
42019;DHT22;27703;51.980;5.848;2023-10-13T09:28:13;19.70;99.90
42019;DHT22;27703;51.980;5.848;2023-10-13T09:30:51;19.70;99.90
42019;DHT22;27703;51.980;5.848;2023-10-13T09:33:24;19.70;99.90
42019;DHT22;27703;51.980;5.848;2023-10-13T09:36:02;19.70;99.90
42019;DHT22;27703;51.980;5.848;2023-10-13T09:38:36;19.70;99.90
42019;DHT22;27703;51.980;5.848;2023-10-13T09:41:06;19.70;99.90
42019;DHT22;27703;51.980;5.848;2023-10-13T09:43:45;19.70;99.90
42019;DHT22;27703;51.980;5.848;2023-10-13T09:46:16;19.70;99.90
42019;DHT22;27703;51.980;5.848;2023-10-13T09:48:47;19.70;99.90
42019;DHT22;27703;51.980;5.848;2023-10-13T09:51:30;19.70;99.90
42019;DHT22;27703;51.980;5.848;2023-10-13T09:54:14;19.70;99.90
42019;DHT22;27703;51.980;5.848;2023-10-13T09:56:47;19.80;99.90
42019;DHT22;27703;51.980;5.848;2023-10-13T09:59:32;19.80;99.90
42019;DHT22;27703;51.980;5.848;2023-10-13T10:02:06;19.90;99.90
42019;DHT22;27703;51.980;5.848;2023-10-13T10:04:51;19.90;99.90
42019;DHT22;27703;51.980;5.848;2023-10-13T10:07:24;19.90;99.90
42019;DHT22;27703;51.980;5.848;2023-10-13T10:10:00;20.00;99.90
42019;DHT22;27703;51.980;5.848;2023-10-13T10:12:42;20.00;99.90
42019;DHT22;27703;51.980;5.848;2023-10-13T10:15:34;20.00;99.90
42019;DHT22;27703;51.980;5.848;2023-10-13T10:18:02;20.00;99.90
42019;DHT22;27703;51.980;5.848;2023-10-13T10:20:34;20.00;99.90
42019;DHT22;27703;51.980;5.848;2023-10-13T10:23:08;20.10;99.90
42019;DHT22;27703;51.980;5.848;2023-10-13T10:25:48;20.10;99.90
42019;DHT22;27703;51.980;5.848;2023-10-13T10:28:17;20.10;99.90
42019;DHT22;27703;51.980;5.848;2023-10-13T10:30:43;20.10;99.90
42019;DHT22;27703;51.980;5.848;2023-10-13T10:33:10;20.10;99.90
42019;DHT22;27703;51.980;5.848;2023-10-13T10:35:44;20.10;99.90
42019;DHT22;27703;51.980;5.848;2023-10-13T10:38:11;20.10;99.90
42019;DHT22;27703;51.980;5.848;2023-10-13T10:40:53;20.10;99.90
42019;DHT22;27703;51.980;5.848;2023-10-13T10:43:35;20.10;99.90
42019;DHT22;27703;51.980;5.848;2023-10-13T10:46:28;20.20;99.90
42019;DHT22;27703;51.980;5.848;2023-10-13T10:48:55;20.20;99.90
42019;DHT22;27703;51.980;5.848;2023-10-13T10:51:28;20.30;99.90
42019;DHT22;27703;51.980;5.848;2023-10-13T10:53:57;20.30;99.90
42019;DHT22;27703;51.980;5.848;2023-10-13T10:56:25;20.30;99.90
42019;DHT22;27703;51.980;5.848;2023-10-13T10:59:00;20.30;99.90
42019;DHT22;27703;51.980;5.848;2023-10-13T11:01:30;20.30;99.90
42019;DHT22;27703;51.980;5.848;2023-10-13T11:04:13;20.40;99.90
42019;DHT22;27703;51.980;5.848;2023-10-13T11:06:56;20.40;99.90
42019;DHT22;27703;51.980;5.848;2023-10-13T11:09:28;20.40;99.90
42019;DHT22;27703;51.980;5.848;2023-10-13T11:15:06;20.50;99.90
42019;DHT22;27703;51.980;5.848;2023-10-13T11:17:39;20.60;99.90
42019;DHT22;27703;51.980;5.848;2023-10-13T11:20:16;20.60;99.90
42019;DHT22;27703;51.980;5.848;2023-10-13T11:22:46;20.60;99.90
42019;DHT22;27703;51.980;5.848;2023-10-13T11:25:29;20.60;99.90
42019;DHT22;27703;51.980;5.848;2023-10-13T11:28:10;20.60;99.90
42019;DHT22;27703;51.980;5.848;2023-10-13T11:30:42;20.60;99.90
42019;DHT22;27703;51.980;5.848;2023-10-13T11:33:11;20.60;99.90
42019;DHT22;27703;51.980;5.848;2023-10-13T11:35:40;20.70;99.90
42019;DHT22;27703;51.980;5.848;2023-10-13T11:38:28;20.80;99.90
42019;DHT22;27703;51.980;5.848;2023-10-13T11:40:59;20.90;99.90
42019;DHT22;27703;51.980;5.848;2023-10-13T11:43:28;21.00;99.90
42019;DHT22;27703;51.980;5.848;2023-10-13T11:45:57;21.00;99.90
42019;DHT22;27703;51.980;5.848;2023-10-13T11:48:44;21.10;99.90
42019;DHT22;27703;51.980;5.848;2023-10-13T11:51:11;21.10;99.90
42019;DHT22;27703;51.980;5.848;2023-10-13T11:53:46;21.10;99.90
42019;DHT22;27703;51.980;5.848;2023-10-13T11:56:18;21.10;99.90
42019;DHT22;27703;51.980;5.848;2023-10-13T11:58:46;21.10;99.90
42019;DHT22;27703;51.980;5.848;2023-10-13T12:01:12;21.20;99.90
42019;DHT22;27703;51.980;5.848;2023-10-13T12:03:50;21.20;99.90
42019;DHT22;27703;51.980;5.848;2023-10-13T12:06:35;21.10;99.90
42019;DHT22;27703;51.980;5.848;2023-10-13T12:09:13;21.20;99.90
42019;DHT22;27703;51.980;5.848;2023-10-13T12:11:49;21.20;99.90
42019;DHT22;27703;51.980;5.848;2023-10-13T12:14:20;21.20;99.90
42019;DHT22;27703;51.980;5.848;2023-10-13T12:16:47;21.20;99.90
42019;DHT22;27703;51.980;5.848;2023-10-13T12:19:21;21.30;99.90
42019;DHT22;27703;51.980;5.848;2023-10-13T12:21:50;21.40;99.90
42019;DHT22;27703;51.980;5.848;2023-10-13T12:24:28;21.40;99.90
42019;DHT22;27703;51.980;5.848;2023-10-13T12:27:00;21.40;99.90
42019;DHT22;27703;51.980;5.848;2023-10-13T12:29:26;21.40;99.90
42019;DHT22;27703;51.980;5.848;2023-10-13T12:31:55;21.50;99.90
42019;DHT22;27703;51.980;5.848;2023-10-13T12:34:35;21.50;99.90
42019;DHT22;27703;51.980;5.848;2023-10-13T12:37:20;21.50;99.90
42019;DHT22;27703;51.980;5.848;2023-10-13T12:42:51;21.50;99.90
42019;DHT22;27703;51.980;5.848;2023-10-13T12:45:46;21.60;99.90
42019;DHT22;27703;51.980;5.848;2023-10-13T12:48:31;21.60;99.90
42019;DHT22;27703;51.980;5.848;2023-10-13T12:51:16;21.60;99.90
42019;DHT22;27703;51.980;5.848;2023-10-13T12:53:54;21.60;99.90
42019;DHT22;27703;51.980;5.848;2023-10-13T12:56:20;21.60;99.90
42019;DHT22;27703;51.980;5.848;2023-10-13T12:58:52;21.60;99.90
42019;DHT22;27703;51.980;5.848;2023-10-13T13:01:19;21.50;99.90
42019;DHT22;27703;51.980;5.848;2023-10-13T13:03:49;21.50;99.90
42019;DHT22;27703;51.980;5.848;2023-10-13T13:06:23;21.60;99.90
42019;DHT22;27703;51.980;5.848;2023-10-13T13:08:55;21.60;99.90
42019;DHT22;27703;51.980;5.848;2023-10-13T13:11:21;21.60;99.90
42019;DHT22;27703;51.980;5.848;2023-10-13T13:13:47;21.60;99.90
42019;DHT22;27703;51.980;5.848;2023-10-13T13:16:17;21.70;99.90
42019;DHT22;27703;51.980;5.848;2023-10-13T13:18:55;21.60;99.90
42019;DHT22;27703;51.980;5.848;2023-10-13T13:21:21;21.60;99.90
42019;DHT22;27703;51.980;5.848;2023-10-13T13:23:50;21.60;99.90
42019;DHT22;27703;51.980;5.848;2023-10-13T13:26:16;21.60;99.90
42019;DHT22;27703;51.980;5.848;2023-10-13T13:28:46;21.70;99.90
42019;DHT22;27703;51.980;5.848;2023-10-13T13:31:16;21.70;99.90
42019;DHT22;27703;51.980;5.848;2023-10-13T13:33:41;21.70;99.90
42019;DHT22;27703;51.980;5.848;2023-10-13T13:36:10;21.70;99.90
42019;DHT22;27703;51.980;5.848;2023-10-13T13:38:41;21.70;99.90
42019;DHT22;27703;51.980;5.848;2023-10-13T13:41:14;21.70;99.90
42019;DHT22;27703;51.980;5.848;2023-10-13T13:43:46;21.70;99.90
42019;DHT22;27703;51.980;5.848;2023-10-13T13:46:23;21.70;99.90
42019;DHT22;27703;51.980;5.848;2023-10-13T13:48:58;21.60;99.90
42019;DHT22;27703;51.980;5.848;2023-10-13T13:51:26;21.60;99.90
42019;DHT22;27703;51.980;5.848;2023-10-13T13:53:55;21.50;99.90
42019;DHT22;27703;51.980;5.848;2023-10-13T13:56:21;21.40;99.90
42019;DHT22;27703;51.980;5.848;2023-10-13T13:58:48;21.40;99.90
42019;DHT22;27703;51.980;5.848;2023-10-13T14:01:15;21.40;99.90
42019;DHT22;27703;51.980;5.848;2023-10-13T14:03:41;21.30;99.90
42019;DHT22;27703;51.980;5.848;2023-10-13T14:06:14;21.30;99.90
42019;DHT22;27703;51.980;5.848;2023-10-13T14:08:47;21.30;99.90
42019;DHT22;27703;51.980;5.848;2023-10-13T14:11:23;21.30;99.90
42019;DHT22;27703;51.980;5.848;2023-10-13T14:16:38;21.10;99.90
42019;DHT22;27703;51.980;5.848;2023-10-13T14:19:03;21.00;99.90
42019;DHT22;27703;51.980;5.848;2023-10-13T14:21:33;20.90;99.90
42019;DHT22;27703;51.980;5.848;2023-10-13T14:24:00;20.90;99.90
42019;DHT22;27703;51.980;5.848;2023-10-13T14:26:27;20.80;99.90
42019;DHT22;27703;51.980;5.848;2023-10-13T14:28:54;20.80;99.90
42019;DHT22;27703;51.980;5.848;2023-10-13T14:31:39;20.70;99.90
42019;DHT22;27703;51.980;5.848;2023-10-13T14:34:05;20.60;99.90
42019;DHT22;27703;51.980;5.848;2023-10-13T14:36:32;20.60;99.90
42019;DHT22;27703;51.980;5.848;2023-10-13T14:39:02;20.60;99.90
42019;DHT22;27703;51.980;5.848;2023-10-13T14:41:28;20.50;99.90
42019;DHT22;27703;51.980;5.848;2023-10-13T14:43:54;20.50;99.90
42019;DHT22;27703;51.980;5.848;2023-10-13T14:46:30;20.50;99.90
42019;DHT22;27703;51.980;5.848;2023-10-13T14:48:56;20.50;99.90
42019;DHT22;27703;51.980;5.848;2023-10-13T14:51:21;20.40;99.90
42019;DHT22;27703;51.980;5.848;2023-10-13T14:53:47;20.40;99.90
42019;DHT22;27703;51.980;5.848;2023-10-13T14:56:14;20.30;99.90
42019;DHT22;27703;51.980;5.848;2023-10-13T14:58:41;20.30;99.90
42019;DHT22;27703;51.980;5.848;2023-10-13T15:01:13;20.20;99.90
42019;DHT22;27703;51.980;5.848;2023-10-13T15:03:42;20.10;99.90
42019;DHT22;27703;51.980;5.848;2023-10-13T15:06:07;20.10;99.90
42019;DHT22;27703;51.980;5.848;2023-10-13T15:08:33;20.10;99.90
42019;DHT22;27703;51.980;5.848;2023-10-13T15:11:08;20.00;99.90
42019;DHT22;27703;51.980;5.848;2023-10-13T15:13:38;20.00;99.90
42019;DHT22;27703;51.980;5.848;2023-10-13T15:16:20;20.00;99.90
42019;DHT22;27703;51.980;5.848;2023-10-13T15:18:47;20.00;99.90
42019;DHT22;27703;51.980;5.848;2023-10-13T15:21:23;20.00;99.90
42019;DHT22;27703;51.980;5.848;2023-10-13T15:23:53;20.00;99.90
42019;DHT22;27703;51.980;5.848;2023-10-13T15:26:19;20.00;99.90
42019;DHT22;27703;51.980;5.848;2023-10-13T15:28:47;20.00;99.90
42019;DHT22;27703;51.980;5.848;2023-10-13T15:31:19;20.00;99.90
42019;DHT22;27703;51.980;5.848;2023-10-13T15:33:56;19.90;99.90
42019;DHT22;27703;51.980;5.848;2023-10-13T15:36:23;19.80;99.90
42019;DHT22;27703;51.980;5.848;2023-10-13T15:38:49;19.80;99.90
42019;DHT22;27703;51.980;5.848;2023-10-13T15:41:24;19.70;99.90
42019;DHT22;27703;51.980;5.848;2023-10-13T15:43:50;19.70;99.90
42019;DHT22;27703;51.980;5.848;2023-10-13T15:46:17;19.70;99.90
42019;DHT22;27703;51.980;5.848;2023-10-13T15:48:43;19.60;99.90
42019;DHT22;27703;51.980;5.848;2023-10-13T15:51:12;19.60;99.90
42019;DHT22;27703;51.980;5.848;2023-10-13T15:53:38;19.50;99.90
42019;DHT22;27703;51.980;5.848;2023-10-13T15:56:04;19.50;99.90
42019;DHT22;27703;51.980;5.848;2023-10-13T15:58:49;19.50;99.90
42019;DHT22;27703;51.980;5.848;2023-10-13T16:01:16;19.50;99.90
42019;DHT22;27703;51.980;5.848;2023-10-13T16:03:45;19.50;99.90
42019;DHT22;27703;51.980;5.848;2023-10-13T16:06:15;19.40;99.90
42019;DHT22;27703;51.980;5.848;2023-10-13T16:08:41;19.40;99.90
42019;DHT22;27703;51.980;5.848;2023-10-13T16:11:11;19.40;99.90
42019;DHT22;27703;51.980;5.848;2023-10-13T16:13:47;19.40;99.90
42019;DHT22;27703;51.980;5.848;2023-10-13T16:16:20;19.40;99.90
42019;DHT22;27703;51.980;5.848;2023-10-13T16:18:52;19.50;99.90
42019;DHT22;27703;51.980;5.848;2023-10-13T16:21:18;19.50;99.90
42019;DHT22;27703;51.980;5.848;2023-10-13T16:23:45;19.50;99.90